EGOP

Pembrey Sands Airport

Pembrey Sands, United Kingdom
METAR EGOP 230950Z 12011KT CAVOK 03/M03 Q1021 BLU
Observed Flight Rules
Feb-23 @ 09:50 UTC (35 minutes ago) Visual Flight Rules
Wind Visibility Clouds
120° at 11 knots 10,000+ meters
  • Clear skies
Temperatures Readings
Current 3°C / 37°F
Dewpoint -3°C / 27°F
Humidity 65%
Altimeter 30.15" Hg
Pressure 1021 hPa
Elevation 6
METAR EGOP 230950Z 12011KT CAVOK 03/M03 Q1021 BLU
Observed Flight Rules
Feb-23 @ 09:50 UTC
(35 minutes ago)
VFR
Wind Visibility
120° at 11 knots 10,000+ meters
Clouds
  • Clear skies
Temperature Dewpoint
3°C / 37°F -3°C / 27°F
Humidity Altimeter Pressure
65% 30.15" Hg 1021 hPa